This is the latest recevied weather packets stored in our database for station/object K7AEL. If no packets are shown the sender has not sent any weather packets the latest 10 day(s).
| Time | Temp. | Humidity | Pressure | Rain* | Wind** | Luminosity | Snow |
|---|---|---|---|---|---|---|---|
| 1777982555 | 15° C | 92% | 1012.5 hPa | 0 mm | - | 0 W/m² | - |
| 1777982254 | 14.44° C | 92% | 1012.6 hPa | 0 mm | - | 0 W/m² | - |
| 1777981952 | 14.44° C | 92% | 1012.5 hPa | 0 mm | - | 0 W/m² | - |
| 1777981649 | 14.44° C | 92% | 1012.4 hPa | 0 mm | - | 0 W/m² | - |
| 1777981344 | 14.44° C | 92% | 1012.3 hPa | 0 mm | - | 0 W/m² | - |
| 1777981041 | 14.44° C | 93% | 1012.2 hPa | 0 mm | - | 0 W/m² | - |
| 1777980737 | 14.44° C | 93% | 1012.3 hPa | 0 mm | - | 0 W/m² | - |
| 1777980434 | 14.44° C | 93% | 1012.4 hPa | 0 mm | - | 0 W/m² | - |
| 1777980132 | 14.44° C | 93% | 1012.8 hPa | 0 mm | - | 0 W/m² | - |
| 1777979826 | 14.44° C | 93% | 1012.7 hPa | 0 mm | - | 0 W/m² | - |
| 1777979522 | 14.44° C | 92% | 1012.5 hPa | 0 mm | - | 0 W/m² | - |
| 1777979218 | 14.44° C | 92% | 1012.6 hPa | 1.27 mm | - | 0 W/m² | - |
| 1777978916 | 14.44° C | 92% | 1012.4 hPa | 1.27 mm | - | 0 W/m² | - |
| 1777978612 | 14.44° C | 92% | 1012.9 hPa | 0 mm | - | 0 W/m² | - |
| 1777978308 | 14.44° C | 92% | 1012.9 hPa | 0 mm | - | 0 W/m² | - |
| 1777978005 | 14.44° C | 92% | 1012.5 hPa | 1.78 mm | - | 0 W/m² | - |
| 1777977703 | 14.44° C | 92% | 1012.6 hPa | 1.78 mm | - | 0 W/m² | - |
| 1777977398 | 14.44° C | 92% | 1012.6 hPa | 0 mm | - | 0 W/m² | - |
| 1777977096 | 15° C | 92% | 1012.7 hPa | 0 mm | - | 0 W/m² | - |
| 1777976794 | 15° C | 92% | 1013 hPa | 1.27 mm | - | 0 W/m² | - |
| 1777976491 | 15° C | 92% | 1012.8 hPa | 3.05 mm | - | 0 W/m² | - |
| 1777976190 | 15° C | 91% | 1013.3 hPa | 1.78 mm | - | 0 W/m² | - |
| 1777975886 | 15° C | 90% | 1013.7 hPa | 0 mm | - | 0 W/m² | - |
| 1777975582 | 15° C | 90% | 1013.9 hPa | 0 mm | - | 0 W/m² | - |
| 1777975279 | 15° C | 90% | 1013.8 hPa | 0 mm | - | 0 W/m² | - |
* Rain latest hour (hover to see other rain measurements)
** Current wind speed in m/s (hover to see current wind gust speed)